createdAt,value
2022-09-12T00:01:29.026Z,95.20
2022-09-12T00:04:00.259Z,94.70
2022-09-12T00:06:31.928Z,94.50
2022-09-12T00:09:03.079Z,94.60
2022-09-12T00:11:31.305Z,94.70
2022-09-12T00:14:02.040Z,94.70
2022-09-12T00:16:32.173Z,94.70
2022-09-12T00:19:01.643Z,94.60
2022-09-12T00:21:30.006Z,94.30
2022-09-12T00:23:58.821Z,94.20
2022-09-12T00:26:27.499Z,93.70
2022-09-12T00:28:55.914Z,93.40
2022-09-12T00:31:26.943Z,93.10
2022-09-12T00:33:58.549Z,93.00
2022-09-12T00:36:28.156Z,93.00
2022-09-12T00:38:56.422Z,92.80
2022-09-12T00:41:29.453Z,93.00
2022-09-12T00:44:24.712Z,92.70
2022-09-12T00:47:04.700Z,92.90
2022-09-12T00:49:53.421Z,92.90
2022-09-12T00:52:40.606Z,93.00
2022-09-12T00:55:13.691Z,92.90
2022-09-12T00:57:48.210Z,92.80
2022-09-12T01:00:19.936Z,92.70
2022-09-12T01:02:52.076Z,92.60
2022-09-12T01:05:20.699Z,92.60
2022-09-12T01:07:50.519Z,92.50
2022-09-12T01:10:20.074Z,92.40
2022-09-12T01:12:49.460Z,92.40
2022-09-12T01:15:17.743Z,92.40
2022-09-12T01:18:04.210Z,92.60
2022-09-12T01:20:37.244Z,92.80
2022-09-12T01:23:58.001Z,92.70
2022-09-12T01:26:31.736Z,92.50
2022-09-12T01:29:27.370Z,92.50
2022-09-12T01:32:29.802Z,92.50
2022-09-12T01:35:23.457Z,92.50
2022-09-12T01:38:10.075Z,92.50
2022-09-12T01:41:00.720Z,92.20
2022-09-12T01:43:51.150Z,92.20
2022-09-12T01:46:29.352Z,92.10
2022-09-12T01:49:13.390Z,92.00
2022-09-12T01:52:13.266Z,92.00
2022-09-12T01:55:08.993Z,91.90
2022-09-12T01:57:53.242Z,91.70
2022-09-12T02:00:21.436Z,91.60
2022-09-12T02:03:16.042Z,91.80
2022-09-12T02:05:49.678Z,92.10
2022-09-12T02:08:27.251Z,92.10
2022-09-12T02:11:07.847Z,92.10
2022-09-12T02:13:41.916Z,91.90
2022-09-12T02:16:34.627Z,91.80
2022-09-12T02:19:23.562Z,91.70
2022-09-12T02:21:59.242Z,91.60
2022-09-12T02:24:37.824Z,91.40
2022-09-12T02:27:11.231Z,91.20
2022-09-12T02:29:39.502Z,91.00
2022-09-12T02:32:12.602Z,91.00
2022-09-12T02:35:07.362Z,90.90
2022-09-12T02:37:56.396Z,90.90
2022-09-12T02:40:24.832Z,90.90
2022-09-12T02:42:53.346Z,90.90
2022-09-12T02:45:23.665Z,90.80
2022-09-12T02:47:58.290Z,90.80
2022-09-12T02:50:27.544Z,90.80
2022-09-12T02:53:05.448Z,90.80
2022-09-12T02:55:35.397Z,90.90
2022-09-12T02:58:05.772Z,90.90
2022-09-12T03:01:01.387Z,90.90
2022-09-12T03:04:04.418Z,90.90
2022-09-12T03:06:54.910Z,90.90
2022-09-12T03:09:43.485Z,91.00
2022-09-12T03:12:14.037Z,91.10
2022-09-12T03:15:05.032Z,91.10
2022-09-12T03:17:36.064Z,91.10
2022-09-12T03:20:18.506Z,91.10
2022-09-12T03:23:03.662Z,91.20
2022-09-12T03:25:34.916Z,91.20
2022-09-12T03:28:24.214Z,91.30
2022-09-12T03:30:53.980Z,91.20
2022-09-12T03:33:25.261Z,91.20
2022-09-12T03:35:54.262Z,91.20
2022-09-12T03:38:22.197Z,91.30
2022-09-12T03:40:54.587Z,91.30
2022-09-12T03:43:23.488Z,91.30
2022-09-12T03:45:53.683Z,91.30
2022-09-12T03:48:21.899Z,91.30
2022-09-12T03:50:49.751Z,91.40
2022-09-12T03:53:17.921Z,91.40
2022-09-12T03:55:45.951Z,91.50
2022-09-12T03:58:13.923Z,91.50
2022-09-12T04:00:43.335Z,91.30
2022-09-12T04:03:11.448Z,91.30
2022-09-12T04:05:39.422Z,91.30
2022-09-12T04:08:07.661Z,91.50
2022-09-12T04:10:35.563Z,91.60
2022-09-12T04:13:03.590Z,91.40
2022-09-12T04:15:31.935Z,91.40
2022-09-12T04:18:05.095Z,91.40
2022-09-12T04:20:34.151Z,91.50
2022-09-12T04:23:02.046Z,91.50
2022-09-12T04:25:31.928Z,91.50
2022-09-12T04:27:59.938Z,91.60
2022-09-12T04:30:27.943Z,91.60
2022-09-12T04:32:56.194Z,91.70
2022-09-12T04:35:24.243Z,91.50
2022-09-12T04:37:52.246Z,91.40
2022-09-12T04:40:20.277Z,91.40
2022-09-12T04:42:48.295Z,91.30
2022-09-12T04:45:17.414Z,91.30
2022-09-12T04:47:47.151Z,91.30
2022-09-12T04:50:15.654Z,91.20
2022-09-12T04:52:43.795Z,91.30
2022-09-12T04:55:11.888Z,91.30
2022-09-12T04:57:40.325Z,91.20
2022-09-12T05:00:08.812Z,91.30
2022-09-12T05:02:36.857Z,91.30
2022-09-12T05:05:05.080Z,91.20
2022-09-12T05:07:33.137Z,91.30
2022-09-12T05:10:01.367Z,91.30
2022-09-12T05:12:29.447Z,91.30
2022-09-12T05:14:57.974Z,91.20
2022-09-12T05:17:26.006Z,91.30
2022-09-12T05:19:54.069Z,91.10
2022-09-12T05:22:22.225Z,91.10
2022-09-12T05:24:50.807Z,91.10
2022-09-12T05:27:19.096Z,91.10
2022-09-12T05:29:47.093Z,91.10
2022-09-12T05:32:15.104Z,90.90
2022-09-12T05:34:43.217Z,90.80
2022-09-12T05:37:11.360Z,90.60
2022-09-12T05:39:39.355Z,90.50
2022-09-12T05:42:07.527Z,90.40
2022-09-12T05:44:35.429Z,90.30
2022-09-12T05:47:03.751Z,90.10
2022-09-12T05:49:31.791Z,90.10
2022-09-12T05:52:00.147Z,89.90
2022-09-12T05:54:31.657Z,89.90
2022-09-12T05:57:00.563Z,89.60
2022-09-12T05:59:29.051Z,89.50
2022-09-12T06:01:57.140Z,89.20
2022-09-12T06:04:26.181Z,89.00
2022-09-12T06:06:54.254Z,88.80
2022-09-12T06:09:22.337Z,88.60
2022-09-12T06:11:50.470Z,88.20
2022-09-12T06:14:19.970Z,87.80
2022-09-12T06:16:49.005Z,87.70
2022-09-12T06:19:20.145Z,87.00
2022-09-12T06:21:52.005Z,86.80
2022-09-12T06:24:21.709Z,86.80
2022-09-12T06:26:53.215Z,86.70
2022-09-12T06:29:21.510Z,86.20
2022-09-12T06:31:49.436Z,87.10
2022-09-12T06:34:17.712Z,87.10
2022-09-12T06:36:49.960Z,86.90
2022-09-12T06:39:20.496Z,86.60
2022-09-12T06:41:50.298Z,86.60
2022-09-12T06:44:23.163Z,86.60
2022-09-12T06:46:51.507Z,86.20
2022-09-12T06:49:19.496Z,86.00
2022-09-12T06:51:47.661Z,86.20
2022-09-12T06:54:17.240Z,85.50
2022-09-12T06:56:45.908Z,85.10
2022-09-12T06:59:14.025Z,85.10
2022-09-12T07:01:42.477Z,85.10
2022-09-12T07:04:11.944Z,85.00
2022-09-12T07:06:42.266Z,85.00
2022-09-12T07:09:14.222Z,84.80
2022-09-12T07:11:43.296Z,84.70
2022-09-12T07:14:14.370Z,84.40
2022-09-12T07:16:42.952Z,84.10
2022-09-12T07:19:12.564Z,83.90
2022-09-12T07:21:41.280Z,83.60
2022-09-12T07:24:10.884Z,83.70
2022-09-12T07:26:41.005Z,83.00
2022-09-12T07:32:06.288Z,82.10
2022-09-12T07:34:35.350Z,82.20
2022-09-12T07:37:03.363Z,80.70
2022-09-12T07:39:31.387Z,80.20
2022-09-12T07:42:00.921Z,80.30
2022-09-12T07:44:29.548Z,80.80
2022-09-12T07:46:57.776Z,79.50
2022-09-12T07:49:25.844Z,78.60
2022-09-12T07:51:54.629Z,77.80
2022-09-12T07:54:22.860Z,78.40
2022-09-12T07:56:51.204Z,78.20
2022-09-12T07:59:35.690Z,77.90
2022-09-12T08:02:07.521Z,77.60
2022-09-12T08:04:36.874Z,76.40
2022-09-12T08:07:04.947Z,75.30
2022-09-12T08:09:33.087Z,76.30
2022-09-12T08:12:01.141Z,75.80
2022-09-12T08:14:30.127Z,75.30
2022-09-12T08:16:58.411Z,75.30
2022-09-12T08:19:26.299Z,74.70
2022-09-12T08:21:54.525Z,74.60
2022-09-12T08:24:22.553Z,74.70
2022-09-12T08:26:50.611Z,74.80
2022-09-12T08:29:18.641Z,73.80
2022-09-12T08:31:47.490Z,73.90
2022-09-12T08:34:17.433Z,73.50
2022-09-12T08:36:45.611Z,73.00
2022-09-12T08:39:14.909Z,72.20
2022-09-12T08:41:46.047Z,72.60
2022-09-12T08:44:20.248Z,73.40
2022-09-12T08:47:00.141Z,72.90
2022-09-12T08:49:39.984Z,72.90
2022-09-12T08:52:32.931Z,72.50
2022-09-12T08:55:02.440Z,72.70
2022-09-12T08:57:30.783Z,72.90
2022-09-12T08:59:58.875Z,71.30
2022-09-12T09:02:40.256Z,70.40
2022-09-12T09:05:39.635Z,70.40
2022-09-12T09:08:24.100Z,69.20
2022-09-12T09:11:15.030Z,68.60
2022-09-12T09:14:19.505Z,68.70
2022-09-12T09:16:50.917Z,69.20
2022-09-12T09:19:22.211Z,68.80
2022-09-12T09:22:00.636Z,69.00
2022-09-12T09:24:45.840Z,68.10
2022-09-12T09:27:41.694Z,68.30
2022-09-12T09:30:24.680Z,68.70
2022-09-12T09:32:56.972Z,68.10
2022-09-12T09:35:47.141Z,68.00
2022-09-12T09:38:25.698Z,67.20
2022-09-12T09:41:04.662Z,68.00
2022-09-12T09:43:38.048Z,67.50
2022-09-12T09:46:07.136Z,68.30
2022-09-12T09:48:38.025Z,68.80
2022-09-12T09:51:09.914Z,68.70
2022-09-12T09:53:57.066Z,68.30
2022-09-12T09:56:35.524Z,68.00
2022-09-12T09:59:18.590Z,67.40
2022-09-12T10:01:57.933Z,68.10
2022-09-12T10:04:29.757Z,67.30
2022-09-12T10:07:01.298Z,67.80
2022-09-12T10:09:33.361Z,66.40
2022-09-12T10:12:21.315Z,66.20
2022-09-12T10:15:03.549Z,64.60
2022-09-12T10:17:40.769Z,64.10
2022-09-12T10:20:34.733Z,63.80
2022-09-12T10:23:23.882Z,61.80
2022-09-12T10:25:58.606Z,61.00
2022-09-12T10:28:50.501Z,60.90
2022-09-12T10:31:29.791Z,59.60
2022-09-12T10:34:00.741Z,59.70
2022-09-12T10:36:40.396Z,58.80
2022-09-12T10:39:19.097Z,57.70
2022-09-12T10:41:47.907Z,57.30
2022-09-12T10:44:19.416Z,58.10
2022-09-12T10:46:47.639Z,57.40
2022-09-12T10:49:23.500Z,58.30
2022-09-12T10:51:54.580Z,57.90
2022-09-12T10:54:26.145Z,58.50
2022-09-12T10:57:06.396Z,57.20
2022-09-12T10:59:58.629Z,56.90
2022-09-12T11:02:41.496Z,56.50
2022-09-12T11:05:23.481Z,56.30
2022-09-12T11:08:20.495Z,56.20
2022-09-12T11:11:17.210Z,55.50
2022-09-12T11:14:00.328Z,56.30
2022-09-12T11:17:13.400Z,57.60
2022-09-12T11:19:58.194Z,58.50
2022-09-12T11:22:54.197Z,57.20
2022-09-12T11:25:37.032Z,55.20
2022-09-12T11:28:14.254Z,54.30
2022-09-12T11:31:16.840Z,54.40
2022-09-12T11:33:56.802Z,55.40
2022-09-12T11:36:28.061Z,57.00
2022-09-12T11:39:08.129Z,58.20
2022-09-12T11:41:40.816Z,57.40
2022-09-12T11:44:39.992Z,56.50
2022-09-12T11:47:14.406Z,56.30
2022-09-12T11:49:47.856Z,57.00
2022-09-12T11:52:24.949Z,55.40
2022-09-12T11:54:55.954Z,55.10
2022-09-12T11:57:54.067Z,54.90
2022-09-12T12:00:27.242Z,54.60
2022-09-12T12:03:03.866Z,55.10
2022-09-12T12:05:41.587Z,57.20
2022-09-12T12:08:11.312Z,57.50
2022-09-12T12:10:44.920Z,56.10
2022-09-12T12:13:22.502Z,55.00
2022-09-12T12:15:59.166Z,53.60
2022-09-12T12:18:32.928Z,53.40
2022-09-12T12:21:33.423Z,53.00
2022-09-12T12:24:12.925Z,52.20
2022-09-12T12:26:43.727Z,52.70
2022-09-12T12:29:14.025Z,52.00
2022-09-12T12:32:00.148Z,51.20
2022-09-12T12:34:40.519Z,51.00
2022-09-12T12:37:20.546Z,50.80
2022-09-12T12:39:48.560Z,50.60
2022-09-12T12:42:45.514Z,49.90
2022-09-12T12:45:19.408Z,50.40
2022-09-12T12:47:57.402Z,50.80
2022-09-12T12:50:28.202Z,51.00
2022-09-12T12:53:05.828Z,50.60
2022-09-12T12:55:38.090Z,50.50
2022-09-12T12:58:35.921Z,49.30
2022-09-12T13:01:22.496Z,50.10
2022-09-12T13:04:16.180Z,49.60
2022-09-12T13:07:23.318Z,49.00
2022-09-12T13:09:55.765Z,48.60
2022-09-12T13:12:34.253Z,48.00
2022-09-12T13:15:06.387Z,48.20
2022-09-12T13:17:44.486Z,48.70
2022-09-12T13:20:29.199Z,48.90
2022-09-12T13:22:59.004Z,48.80
2022-09-12T13:25:36.969Z,48.60
2022-09-12T13:28:18.997Z,48.30
2022-09-12T13:31:09.427Z,48.50
2022-09-12T13:33:59.906Z,49.00
2022-09-12T13:36:51.298Z,49.10
2022-09-12T13:39:35.606Z,48.90
2022-09-12T13:42:03.694Z,49.00
2022-09-12T13:44:37.449Z,48.80
2022-09-12T13:47:06.464Z,48.50
2022-09-12T13:49:38.458Z,48.30
2022-09-12T13:52:18.458Z,48.40
2022-09-12T13:54:49.832Z,48.40
2022-09-12T13:57:43.710Z,48.00
2022-09-12T14:00:22.715Z,48.20
2022-09-12T14:03:11.611Z,48.20
2022-09-12T14:05:41.810Z,47.70
2022-09-12T14:08:12.404Z,48.70
2022-09-12T14:10:43.537Z,49.30
2022-09-12T14:13:20.099Z,49.40
2022-09-12T14:15:52.934Z,49.90
2022-09-12T14:18:34.895Z,50.80
2022-09-12T14:21:34.530Z,51.30
2022-09-12T14:24:06.063Z,51.40
2022-09-12T14:26:40.530Z,52.20
2022-09-12T14:29:09.861Z,52.90
2022-09-12T14:31:39.732Z,52.80
2022-09-12T14:34:12.709Z,54.20
2022-09-12T14:36:47.006Z,55.30
2022-09-12T14:39:23.270Z,55.70
2022-09-12T14:42:00.463Z,56.80
2022-09-12T14:44:31.685Z,58.20
2022-09-12T14:47:12.526Z,59.00
2022-09-12T14:49:41.553Z,59.70
2022-09-12T14:52:25.766Z,60.90
2022-09-12T14:54:59.256Z,62.20
2022-09-12T14:57:42.367Z,62.30
2022-09-12T15:00:13.438Z,62.90
2022-09-12T15:02:45.147Z,63.80
2022-09-12T15:05:13.509Z,64.10
2022-09-12T15:07:43.616Z,65.10
2022-09-12T15:10:36.028Z,65.40
2022-09-12T15:13:06.773Z,65.70
2022-09-12T15:15:35.384Z,66.60
2022-09-12T15:18:06.608Z,67.00
2022-09-12T15:20:41.808Z,66.60
2022-09-12T15:23:29.317Z,67.40
2022-09-12T15:25:58.202Z,68.50
2022-09-12T15:28:27.220Z,68.60
2022-09-12T15:30:57.063Z,68.40
2022-09-12T15:33:26.103Z,68.60
2022-09-12T15:35:54.300Z,68.50
2022-09-12T15:38:26.377Z,68.30
2022-09-12T15:40:55.173Z,67.90
2022-09-12T15:43:24.230Z,68.30
2022-09-12T15:45:52.801Z,68.80
2022-09-12T15:48:21.536Z,69.20
2022-09-12T15:50:49.679Z,69.90
2022-09-12T15:53:18.112Z,70.60
2022-09-12T15:55:46.742Z,71.30
2022-09-12T15:58:14.985Z,72.00
2022-09-12T16:00:42.964Z,72.40
2022-09-12T16:03:23.929Z,72.50
2022-09-12T16:05:57.951Z,72.90
2022-09-12T16:08:26.521Z,73.00
2022-09-12T16:10:59.634Z,72.70
2022-09-12T16:13:27.790Z,72.60
2022-09-12T16:15:59.732Z,72.90
2022-09-12T16:18:28.698Z,73.00
2022-09-12T16:20:57.827Z,73.00
2022-09-12T16:23:25.865Z,73.10
2022-09-12T16:26:02.048Z,72.60
2022-09-12T16:28:30.683Z,72.20
2022-09-12T16:31:00.459Z,72.10
2022-09-12T16:33:29.622Z,72.40
2022-09-12T16:36:12.013Z,73.20
2022-09-12T16:38:50.444Z,72.80
2022-09-12T16:41:20.627Z,72.60
2022-09-12T16:43:49.278Z,73.80
2022-09-12T16:46:26.155Z,74.30
2022-09-12T16:48:59.385Z,74.60
2022-09-12T16:51:31.306Z,74.90
2022-09-12T16:53:59.646Z,74.90
2022-09-12T16:56:28.108Z,75.00
2022-09-12T16:58:56.308Z,74.80
2022-09-12T17:01:26.825Z,74.50
2022-09-12T17:03:57.294Z,74.50
2022-09-12T17:06:26.309Z,75.00
2022-09-12T17:08:56.469Z,75.40
2022-09-12T17:11:27.324Z,75.40
2022-09-12T17:14:05.818Z,75.90
2022-09-12T17:16:37.990Z,76.10
2022-09-12T17:19:07.335Z,76.20
2022-09-12T17:21:35.895Z,76.60
2022-09-12T17:24:04.555Z,76.90
2022-09-12T17:26:32.483Z,77.10
2022-09-12T17:29:01.323Z,77.10
2022-09-12T17:31:29.452Z,77.00
2022-09-12T17:33:58.976Z,77.20
2022-09-12T17:36:28.366Z,77.40
2022-09-12T17:38:56.892Z,77.70
2022-09-12T17:41:27.818Z,77.90
2022-09-12T17:43:57.920Z,78.20
2022-09-12T17:46:35.405Z,78.40
2022-09-12T17:49:06.431Z,78.50
2022-09-12T17:51:34.614Z,78.50
2022-09-12T17:54:13.280Z,77.90
2022-09-12T17:56:41.629Z,78.10
2022-09-12T17:59:14.417Z,78.10
2022-09-12T18:02:01.288Z,78.40
2022-09-12T18:04:30.280Z,78.70
2022-09-12T18:07:00.654Z,78.90
2022-09-12T18:09:31.058Z,79.00
2022-09-12T18:11:59.913Z,79.20
2022-09-12T18:14:29.092Z,79.40
2022-09-12T18:16:57.955Z,79.70
2022-09-12T18:19:27.061Z,80.00
2022-09-12T18:21:56.465Z,79.90
2022-09-12T18:24:25.069Z,79.70
2022-09-12T18:26:53.137Z,79.90
2022-09-12T18:29:21.092Z,79.90
2022-09-12T18:31:49.818Z,79.80
2022-09-12T18:34:18.208Z,80.00
2022-09-12T18:36:48.513Z,80.20
2022-09-12T18:39:18.391Z,80.30
2022-09-12T18:41:46.717Z,80.40
2022-09-12T18:44:14.605Z,80.40
2022-09-12T18:46:42.936Z,80.40
2022-09-12T18:49:11.080Z,80.60
2022-09-12T18:51:42.062Z,80.80
2022-09-12T18:54:14.672Z,80.90
2022-09-12T18:56:44.408Z,81.10
2022-09-12T18:59:15.801Z,81.80
2022-09-12T19:01:44.102Z,81.10
2022-09-12T19:04:14.023Z,81.20
2022-09-12T19:06:44.782Z,81.40
2022-09-12T19:09:14.925Z,81.70
2022-09-12T19:11:49.191Z,81.70
2022-09-12T19:14:19.703Z,81.70
2022-09-12T19:16:47.759Z,82.00
2022-09-12T19:19:16.034Z,82.20
2022-09-12T19:21:45.333Z,82.60
2022-09-12T19:24:17.636Z,82.80
2022-09-12T19:26:51.028Z,82.90
2022-09-12T19:29:19.616Z,83.40
2022-09-12T19:31:47.701Z,83.90
2022-09-12T19:34:22.225Z,84.30
2022-09-12T19:36:52.215Z,84.50
2022-09-12T19:39:21.187Z,84.60
2022-09-12T19:41:49.738Z,84.80
2022-09-12T19:44:24.116Z,85.00
2022-09-12T19:46:53.253Z,85.00
2022-09-12T19:49:21.463Z,85.20
2022-09-12T19:51:49.647Z,85.30
2022-09-12T19:54:17.622Z,85.30
2022-09-12T19:56:45.661Z,85.20
2022-09-12T19:59:16.103Z,85.40
2022-09-12T20:01:46.513Z,85.50
2022-09-12T20:04:15.645Z,85.40
2022-09-12T20:06:45.903Z,85.50
2022-09-12T20:09:15.257Z,85.60
2022-09-12T20:11:46.233Z,85.70
2022-09-12T20:14:14.756Z,85.70
2022-09-12T20:16:43.821Z,85.80
2022-09-12T20:19:12.809Z,85.90
2022-09-12T20:21:43.009Z,86.10
2022-09-12T20:24:17.065Z,86.80
2022-09-12T20:26:45.771Z,86.30
2022-09-12T20:29:13.761Z,86.50
2022-09-12T20:31:42.915Z,86.70
2022-09-12T20:34:23.401Z,86.50
2022-09-12T20:36:57.291Z,86.40
2022-09-12T20:39:25.590Z,86.90
2022-09-12T20:41:53.565Z,86.90
2022-09-12T20:44:22.289Z,86.90
2022-09-12T20:46:50.304Z,86.90
2022-09-12T20:49:21.266Z,87.10
2022-09-12T20:51:49.327Z,87.30
2022-09-12T20:54:17.355Z,87.30
2022-09-12T20:56:45.647Z,87.30
2022-09-12T20:59:13.601Z,87.40
2022-09-12T21:01:41.678Z,87.40
2022-09-12T21:04:14.308Z,87.40
2022-09-12T21:06:43.243Z,87.30
2022-09-12T21:09:12.693Z,87.40
2022-09-12T21:11:40.957Z,87.40
2022-09-12T21:14:08.991Z,87.70
2022-09-12T21:16:38.952Z,87.00
2022-09-12T21:19:07.258Z,86.90
2022-09-12T21:21:35.349Z,87.00
2022-09-12T21:24:04.315Z,86.80
2022-09-12T21:26:33.351Z,86.70
2022-09-12T21:29:01.495Z,86.80
2022-09-12T21:31:33.433Z,86.80
2022-09-12T21:34:01.317Z,87.00
2022-09-12T21:36:29.129Z,87.10
2022-09-12T21:39:01.222Z,87.20
2022-09-12T21:41:29.428Z,87.10
2022-09-12T21:43:57.256Z,87.20
2022-09-12T21:46:25.934Z,87.10
2022-09-12T21:48:54.056Z,87.20
2022-09-12T21:51:22.121Z,87.40
2022-09-12T21:53:50.004Z,87.50
2022-09-12T21:56:17.867Z,87.40
2022-09-12T21:58:45.763Z,87.70
2022-09-12T22:01:13.755Z,87.70
2022-09-12T22:03:43.432Z,87.80
2022-09-12T22:06:11.843Z,88.00
2022-09-12T22:08:40.569Z,88.00
2022-09-12T22:11:10.468Z,88.00
2022-09-12T22:13:43.902Z,88.00
2022-09-12T22:16:12.505Z,88.20
2022-09-12T22:18:40.806Z,88.40
2022-09-12T22:21:15.708Z,88.60
2022-09-12T22:24:03.250Z,89.00
2022-09-12T22:26:37.056Z,89.10
2022-09-12T22:29:04.905Z,89.20
2022-09-12T22:31:34.073Z,89.40
2022-09-12T22:34:02.215Z,89.60
2022-09-12T22:36:31.409Z,89.60
2022-09-12T22:39:00.724Z,89.90
2022-09-12T22:41:28.994Z,89.80
2022-09-12T22:43:57.753Z,90.10
2022-09-12T22:46:26.113Z,90.10
2022-09-12T22:48:55.936Z,90.20
2022-09-12T22:51:24.101Z,90.30
2022-09-12T22:53:52.693Z,90.50
2022-09-12T22:56:20.652Z,90.60
2022-09-12T22:58:48.646Z,90.70
2022-09-12T23:01:16.612Z,90.80
2022-09-12T23:03:44.885Z,90.90
2022-09-12T23:06:13.081Z,91.00
2022-09-12T23:08:41.341Z,91.00
2022-09-12T23:11:13.371Z,91.20
2022-09-12T23:13:47.115Z,91.40
2022-09-12T23:16:32.996Z,91.40
2022-09-12T23:19:04.357Z,91.60
2022-09-12T23:21:32.448Z,91.60
2022-09-12T23:24:00.322Z,91.60
2022-09-12T23:26:29.190Z,91.60
2022-09-12T23:28:59.161Z,91.70
2022-09-12T23:31:30.631Z,91.80
2022-09-12T23:34:06.337Z,91.90
2022-09-12T23:36:35.036Z,91.90
2022-09-12T23:39:03.115Z,92.10
2022-09-12T23:41:31.560Z,92.10
2022-09-12T23:43:59.603Z,92.10
2022-09-12T23:46:28.101Z,92.10
2022-09-12T23:48:55.944Z,92.10
2022-09-12T23:51:24.067Z,92.10
2022-09-12T23:53:51.945Z,92.20
2022-09-12T23:56:20.072Z,92.20
2022-09-12T23:58:48.125Z,92.20
